sensor_id;sensor_type;location;lat;lon;timestamp;P1;durP1;ratioP1;P2;durP2;ratioP2
10900;SDS011;5503;53.208;10.392;2022-10-31T00:00:30;15.07;;;8.10;;
10900;SDS011;5503;53.208;10.392;2022-10-31T00:02:58;16.52;;;7.20;;
10900;SDS011;5503;53.208;10.392;2022-10-31T00:05:25;15.03;;;7.40;;
10900;SDS011;5503;53.208;10.392;2022-10-31T00:07:52;15.40;;;7.70;;
10900;SDS011;5503;53.208;10.392;2022-10-31T00:10:19;15.20;;;7.65;;
10900;SDS011;5503;53.208;10.392;2022-10-31T00:12:46;15.20;;;7.85;;
10900;SDS011;5503;53.208;10.392;2022-10-31T00:15:13;18.98;;;8.32;;
10900;SDS011;5503;53.208;10.392;2022-10-31T00:17:40;14.37;;;7.47;;
10900;SDS011;5503;53.208;10.392;2022-10-31T00:20:09;16.30;;;7.90;;
10900;SDS011;5503;53.208;10.392;2022-10-31T00:22:36;17.45;;;8.35;;
10900;SDS011;5503;53.208;10.392;2022-10-31T00:25:03;17.90;;;7.78;;
10900;SDS011;5503;53.208;10.392;2022-10-31T00:27:30;13.00;;;7.38;;
10900;SDS011;5503;53.208;10.392;2022-10-31T00:29:57;15.20;;;8.13;;
10900;SDS011;5503;53.208;10.392;2022-10-31T00:32:24;14.80;;;8.20;;
10900;SDS011;5503;53.208;10.392;2022-10-31T00:34:51;16.55;;;8.27;;
10900;SDS011;5503;53.208;10.392;2022-10-31T00:37:19;16.58;;;8.43;;
10900;SDS011;5503;53.208;10.392;2022-10-31T00:39:46;15.98;;;8.23;;
10900;SDS011;5503;53.208;10.392;2022-10-31T00:42:14;16.70;;;8.57;;
10900;SDS011;5503;53.208;10.392;2022-10-31T00:44:41;16.08;;;8.20;;
10900;SDS011;5503;53.208;10.392;2022-10-31T00:47:08;15.13;;;7.93;;
10900;SDS011;5503;53.208;10.392;2022-10-31T00:49:35;18.88;;;8.30;;
10900;SDS011;5503;53.208;10.392;2022-10-31T00:52:02;14.75;;;8.20;;
10900;SDS011;5503;53.208;10.392;2022-10-31T00:54:30;19.87;;;7.77;;
10900;SDS011;5503;53.208;10.392;2022-10-31T00:56:57;15.63;;;7.80;;
10900;SDS011;5503;53.208;10.392;2022-10-31T00:59:24;13.40;;;8.02;;
10900;SDS011;5503;53.208;10.392;2022-10-31T01:01:51;18.17;;;8.10;;
10900;SDS011;5503;53.208;10.392;2022-10-31T01:04:18;12.77;;;8.43;;
10900;SDS011;5503;53.208;10.392;2022-10-31T01:06:45;13.60;;;7.43;;
10900;SDS011;5503;53.208;10.392;2022-10-31T01:09:12;17.08;;;7.63;;
10900;SDS011;5503;53.208;10.392;2022-10-31T01:11:40;13.52;;;7.15;;
10900;SDS011;5503;53.208;10.392;2022-10-31T01:14:08;14.55;;;7.70;;
10900;SDS011;5503;53.208;10.392;2022-10-31T01:16:35;14.55;;;7.80;;
10900;SDS011;5503;53.208;10.392;2022-10-31T01:19:02;12.73;;;7.10;;
10900;SDS011;5503;53.208;10.392;2022-10-31T01:21:29;25.35;;;9.80;;
10900;SDS011;5503;53.208;10.392;2022-10-31T01:23:56;23.77;;;11.55;;
10900;SDS011;5503;53.208;10.392;2022-10-31T01:26:23;28.35;;;11.70;;
10900;SDS011;5503;53.208;10.392;2022-10-31T01:28:54;18.63;;;9.35;;
10900;SDS011;5503;53.208;10.392;2022-10-31T01:31:23;16.40;;;7.43;;
10900;SDS011;5503;53.208;10.392;2022-10-31T01:33:51;14.98;;;7.53;;
10900;SDS011;5503;53.208;10.392;2022-10-31T01:36:20;15.88;;;8.05;;
10900;SDS011;5503;53.208;10.392;2022-10-31T01:38:48;17.35;;;7.95;;
10900;SDS011;5503;53.208;10.392;2022-10-31T01:41:17;15.68;;;8.18;;
10900;SDS011;5503;53.208;10.392;2022-10-31T01:43:46;19.57;;;8.40;;
10900;SDS011;5503;53.208;10.392;2022-10-31T01:46:21;18.80;;;9.02;;
10900;SDS011;5503;53.208;10.392;2022-10-31T01:48:50;18.33;;;9.50;;
10900;SDS011;5503;53.208;10.392;2022-10-31T01:51:19;24.75;;;10.48;;
10900;SDS011;5503;53.208;10.392;2022-10-31T01:53:49;20.83;;;10.20;;
10900;SDS011;5503;53.208;10.392;2022-10-31T01:56:20;21.00;;;9.30;;
10900;SDS011;5503;53.208;10.392;2022-10-31T01:58:47;20.70;;;10.05;;
10900;SDS011;5503;53.208;10.392;2022-10-31T02:01:14;18.33;;;9.65;;
10900;SDS011;5503;53.208;10.392;2022-10-31T02:03:44;21.67;;;10.93;;
10900;SDS011;5503;53.208;10.392;2022-10-31T02:06:15;22.17;;;9.30;;
10900;SDS011;5503;53.208;10.392;2022-10-31T02:08:47;19.87;;;9.87;;
10900;SDS011;5503;53.208;10.392;2022-10-31T02:11:15;24.13;;;10.98;;
10900;SDS011;5503;53.208;10.392;2022-10-31T02:13:57;29.35;;;14.00;;
10900;SDS011;5503;53.208;10.392;2022-10-31T02:16:26;32.30;;;14.73;;
10900;SDS011;5503;53.208;10.392;2022-10-31T02:18:53;36.73;;;15.23;;
10900;SDS011;5503;53.208;10.392;2022-10-31T02:21:22;39.05;;;15.80;;
10900;SDS011;5503;53.208;10.392;2022-10-31T02:26:54;31.13;;;15.60;;
10900;SDS011;5503;53.208;10.392;2022-10-31T02:29:52;36.97;;;16.63;;
10900;SDS011;5503;53.208;10.392;2022-10-31T02:32:45;33.97;;;16.47;;
10900;SDS011;5503;53.208;10.392;2022-10-31T02:35:45;30.50;;;15.98;;
10900;SDS011;5503;53.208;10.392;2022-10-31T02:38:23;34.90;;;17.15;;
10900;SDS011;5503;53.208;10.392;2022-10-31T02:40:59;35.10;;;16.45;;
10900;SDS011;5503;53.208;10.392;2022-10-31T02:43:32;32.90;;;15.60;;
10900;SDS011;5503;53.208;10.392;2022-10-31T02:46:06;33.27;;;16.60;;
10900;SDS011;5503;53.208;10.392;2022-10-31T02:48:38;35.13;;;17.25;;
10900;SDS011;5503;53.208;10.392;2022-10-31T02:51:08;31.77;;;15.27;;
10900;SDS011;5503;53.208;10.392;2022-10-31T02:53:37;35.22;;;16.30;;
10900;SDS011;5503;53.208;10.392;2022-10-31T02:56:06;39.30;;;16.95;;
10900;SDS011;5503;53.208;10.392;2022-10-31T02:58:38;38.27;;;18.90;;
10900;SDS011;5503;53.208;10.392;2022-10-31T03:01:10;40.28;;;18.30;;
10900;SDS011;5503;53.208;10.392;2022-10-31T03:04:02;36.90;;;17.38;;
10900;SDS011;5503;53.208;10.392;2022-10-31T03:06:44;36.05;;;17.70;;
10900;SDS011;5503;53.208;10.392;2022-10-31T03:09:17;35.28;;;17.42;;
10900;SDS011;5503;53.208;10.392;2022-10-31T03:11:50;40.63;;;17.60;;
10900;SDS011;5503;53.208;10.392;2022-10-31T03:14:24;44.25;;;18.02;;
10900;SDS011;5503;53.208;10.392;2022-10-31T03:16:58;49.88;;;18.90;;
10900;SDS011;5503;53.208;10.392;2022-10-31T03:19:31;39.88;;;18.38;;
10900;SDS011;5503;53.208;10.392;2022-10-31T03:22:02;41.47;;;18.65;;
10900;SDS011;5503;53.208;10.392;2022-10-31T03:24:34;47.53;;;19.83;;
10900;SDS011;5503;53.208;10.392;2022-10-31T03:27:05;47.35;;;19.52;;
10900;SDS011;5503;53.208;10.392;2022-10-31T03:29:35;48.70;;;20.75;;
10900;SDS011;5503;53.208;10.392;2022-10-31T03:32:05;49.22;;;20.33;;
10900;SDS011;5503;53.208;10.392;2022-10-31T03:34:36;48.55;;;21.02;;
10900;SDS011;5503;53.208;10.392;2022-10-31T03:37:06;44.97;;;20.47;;
10900;SDS011;5503;53.208;10.392;2022-10-31T03:39:36;52.80;;;21.85;;
10900;SDS011;5503;53.208;10.392;2022-10-31T03:42:05;52.70;;;21.73;;
10900;SDS011;5503;53.208;10.392;2022-10-31T03:44:36;51.85;;;21.38;;
10900;SDS011;5503;53.208;10.392;2022-10-31T03:47:07;47.47;;;20.73;;
10900;SDS011;5503;53.208;10.392;2022-10-31T03:49:34;55.40;;;21.70;;
10900;SDS011;5503;53.208;10.392;2022-10-31T03:52:05;56.00;;;22.70;;
10900;SDS011;5503;53.208;10.392;2022-10-31T03:54:40;50.13;;;21.48;;
10900;SDS011;5503;53.208;10.392;2022-10-31T03:57:11;54.05;;;22.50;;
10900;SDS011;5503;53.208;10.392;2022-10-31T03:59:43;52.35;;;22.38;;
10900;SDS011;5503;53.208;10.392;2022-10-31T04:02:14;54.20;;;22.40;;
10900;SDS011;5503;53.208;10.392;2022-10-31T04:04:44;52.38;;;21.55;;
10900;SDS011;5503;53.208;10.392;2022-10-31T04:07:16;53.97;;;23.70;;
10900;SDS011;5503;53.208;10.392;2022-10-31T04:09:45;50.20;;;22.13;;
10900;SDS011;5503;53.208;10.392;2022-10-31T04:12:14;49.50;;;22.92;;
10900;SDS011;5503;53.208;10.392;2022-10-31T04:14:43;51.87;;;21.67;;
10900;SDS011;5503;53.208;10.392;2022-10-31T04:17:14;56.25;;;22.35;;
10900;SDS011;5503;53.208;10.392;2022-10-31T04:19:44;47.22;;;21.85;;
10900;SDS011;5503;53.208;10.392;2022-10-31T04:22:11;47.22;;;21.50;;
10900;SDS011;5503;53.208;10.392;2022-10-31T04:24:40;45.97;;;21.45;;
10900;SDS011;5503;53.208;10.392;2022-10-31T04:27:07;46.57;;;20.67;;
10900;SDS011;5503;53.208;10.392;2022-10-31T04:29:34;52.17;;;22.10;;
10900;SDS011;5503;53.208;10.392;2022-10-31T04:32:01;49.92;;;22.15;;
10900;SDS011;5503;53.208;10.392;2022-10-31T04:34:28;48.10;;;21.20;;
10900;SDS011;5503;53.208;10.392;2022-10-31T04:36:54;58.08;;;21.90;;
10900;SDS011;5503;53.208;10.392;2022-10-31T04:39:21;51.27;;;22.57;;
10900;SDS011;5503;53.208;10.392;2022-10-31T04:41:49;50.38;;;21.77;;
10900;SDS011;5503;53.208;10.392;2022-10-31T04:44:16;51.17;;;21.65;;
10900;SDS011;5503;53.208;10.392;2022-10-31T04:46:43;46.17;;;21.50;;
10900;SDS011;5503;53.208;10.392;2022-10-31T04:49:10;55.42;;;22.13;;
10900;SDS011;5503;53.208;10.392;2022-10-31T04:51:37;52.00;;;22.03;;
10900;SDS011;5503;53.208;10.392;2022-10-31T04:54:04;51.47;;;22.67;;
10900;SDS011;5503;53.208;10.392;2022-10-31T04:56:31;55.22;;;23.30;;
10900;SDS011;5503;53.208;10.392;2022-10-31T04:58:59;57.42;;;22.88;;
10900;SDS011;5503;53.208;10.392;2022-10-31T05:01:26;48.50;;;20.85;;
10900;SDS011;5503;53.208;10.392;2022-10-31T05:03:53;47.13;;;21.30;;
10900;SDS011;5503;53.208;10.392;2022-10-31T05:06:20;46.78;;;23.17;;
10900;SDS011;5503;53.208;10.392;2022-10-31T05:08:47;57.83;;;22.92;;
10900;SDS011;5503;53.208;10.392;2022-10-31T05:11:14;52.25;;;22.85;;
10900;SDS011;5503;53.208;10.392;2022-10-31T05:13:40;57.88;;;22.70;;
10900;SDS011;5503;53.208;10.392;2022-10-31T05:16:09;49.77;;;21.60;;
10900;SDS011;5503;53.208;10.392;2022-10-31T05:18:36;57.55;;;22.25;;
10900;SDS011;5503;53.208;10.392;2022-10-31T05:21:03;53.70;;;21.83;;
10900;SDS011;5503;53.208;10.392;2022-10-31T05:23:30;55.13;;;22.25;;
10900;SDS011;5503;53.208;10.392;2022-10-31T05:25:57;55.20;;;21.95;;
10900;SDS011;5503;53.208;10.392;2022-10-31T05:28:24;51.97;;;20.70;;
10900;SDS011;5503;53.208;10.392;2022-10-31T05:30:51;57.83;;;22.10;;
10900;SDS011;5503;53.208;10.392;2022-10-31T05:33:19;56.00;;;21.48;;
10900;SDS011;5503;53.208;10.392;2022-10-31T05:35:46;67.25;;;23.63;;
10900;SDS011;5503;53.208;10.392;2022-10-31T05:38:13;52.05;;;20.67;;
10900;SDS011;5503;53.208;10.392;2022-10-31T05:40:40;58.43;;;22.83;;
10900;SDS011;5503;53.208;10.392;2022-10-31T05:43:06;58.15;;;22.33;;
10900;SDS011;5503;53.208;10.392;2022-10-31T05:45:33;62.33;;;22.17;;
10900;SDS011;5503;53.208;10.392;2022-10-31T05:48:01;52.15;;;21.30;;
10900;SDS011;5503;53.208;10.392;2022-10-31T05:50:30;60.13;;;21.83;;
10900;SDS011;5503;53.208;10.392;2022-10-31T05:52:58;50.43;;;21.30;;
10900;SDS011;5503;53.208;10.392;2022-10-31T05:55:26;54.85;;;20.70;;
10900;SDS011;5503;53.208;10.392;2022-10-31T05:57:54;47.42;;;19.10;;
10900;SDS011;5503;53.208;10.392;2022-10-31T06:00:21;49.75;;;20.67;;
10900;SDS011;5503;53.208;10.392;2022-10-31T06:02:48;50.05;;;18.85;;
10900;SDS011;5503;53.208;10.392;2022-10-31T06:05:15;49.97;;;19.57;;
10900;SDS011;5503;53.208;10.392;2022-10-31T06:07:44;47.05;;;18.55;;
10900;SDS011;5503;53.208;10.392;2022-10-31T06:10:11;51.00;;;18.65;;
10900;SDS011;5503;53.208;10.392;2022-10-31T06:12:37;45.50;;;18.58;;
10900;SDS011;5503;53.208;10.392;2022-10-31T06:15:06;51.40;;;18.92;;
10900;SDS011;5503;53.208;10.392;2022-10-31T06:17:34;51.40;;;18.90;;
10900;SDS011;5503;53.208;10.392;2022-10-31T06:20:01;48.17;;;18.27;;
10900;SDS011;5503;53.208;10.392;2022-10-31T06:22:30;45.97;;;17.88;;
10900;SDS011;5503;53.208;10.392;2022-10-31T06:24:58;46.05;;;18.45;;
10900;SDS011;5503;53.208;10.392;2022-10-31T06:27:25;40.67;;;17.48;;
10900;SDS011;5503;53.208;10.392;2022-10-31T06:29:52;42.80;;;16.60;;
10900;SDS011;5503;53.208;10.392;2022-10-31T06:32:19;45.35;;;17.38;;
10900;SDS011;5503;53.208;10.392;2022-10-31T06:34:46;44.42;;;16.48;;
10900;SDS011;5503;53.208;10.392;2022-10-31T06:37:13;40.40;;;16.95;;
10900;SDS011;5503;53.208;10.392;2022-10-31T06:39:41;42.53;;;16.48;;
10900;SDS011;5503;53.208;10.392;2022-10-31T06:42:09;44.53;;;16.83;;
10900;SDS011;5503;53.208;10.392;2022-10-31T06:44:36;42.88;;;16.35;;
10900;SDS011;5503;53.208;10.392;2022-10-31T06:47:03;46.85;;;16.85;;
10900;SDS011;5503;53.208;10.392;2022-10-31T06:49:31;44.13;;;16.30;;
10900;SDS011;5503;53.208;10.392;2022-10-31T06:51:58;52.65;;;17.98;;
10900;SDS011;5503;53.208;10.392;2022-10-31T06:54:25;44.30;;;16.53;;
10900;SDS011;5503;53.208;10.392;2022-10-31T06:56:52;45.35;;;17.02;;
10900;SDS011;5503;53.208;10.392;2022-10-31T06:59:20;39.28;;;15.02;;
10900;SDS011;5503;53.208;10.392;2022-10-31T07:01:49;41.50;;;16.23;;
10900;SDS011;5503;53.208;10.392;2022-10-31T07:04:16;41.28;;;14.90;;
10900;SDS011;5503;53.208;10.392;2022-10-31T07:06:42;38.03;;;14.63;;
10900;SDS011;5503;53.208;10.392;2022-10-31T07:09:09;37.10;;;14.50;;
10900;SDS011;5503;53.208;10.392;2022-10-31T07:11:36;35.78;;;13.75;;
10900;SDS011;5503;53.208;10.392;2022-10-31T07:14:03;45.55;;;14.55;;
10900;SDS011;5503;53.208;10.392;2022-10-31T07:16:31;35.75;;;14.52;;
10900;SDS011;5503;53.208;10.392;2022-10-31T07:18:58;36.13;;;13.90;;
10900;SDS011;5503;53.208;10.392;2022-10-31T07:21:25;39.20;;;14.55;;
10900;SDS011;5503;53.208;10.392;2022-10-31T07:23:52;36.53;;;13.98;;
10900;SDS011;5503;53.208;10.392;2022-10-31T07:26:19;37.97;;;14.27;;
10900;SDS011;5503;53.208;10.392;2022-10-31T07:28:45;30.52;;;12.82;;
10900;SDS011;5503;53.208;10.392;2022-10-31T07:31:13;38.83;;;13.80;;
10900;SDS011;5503;53.208;10.392;2022-10-31T07:33:41;37.55;;;12.80;;
10900;SDS011;5503;53.208;10.392;2022-10-31T07:36:08;39.55;;;14.20;;
10900;SDS011;5503;53.208;10.392;2022-10-31T07:38:35;36.58;;;13.32;;
10900;SDS011;5503;53.208;10.392;2022-10-31T07:41:01;40.80;;;13.75;;
10900;SDS011;5503;53.208;10.392;2022-10-31T07:43:28;40.00;;;13.50;;
10900;SDS011;5503;53.208;10.392;2022-10-31T07:45:55;32.72;;;13.15;;
10900;SDS011;5503;53.208;10.392;2022-10-31T07:48:22;34.35;;;12.65;;
10900;SDS011;5503;53.208;10.392;2022-10-31T07:50:50;32.53;;;12.07;;
10900;SDS011;5503;53.208;10.392;2022-10-31T07:53:17;31.17;;;12.25;;
10900;SDS011;5503;53.208;10.392;2022-10-31T07:55:44;33.03;;;12.67;;
10900;SDS011;5503;53.208;10.392;2022-10-31T07:58:12;30.45;;;12.18;;
10900;SDS011;5503;53.208;10.392;2022-10-31T08:00:40;29.70;;;11.75;;
10900;SDS011;5503;53.208;10.392;2022-10-31T08:03:10;33.25;;;11.82;;
10900;SDS011;5503;53.208;10.392;2022-10-31T08:05:38;35.15;;;12.77;;
10900;SDS011;5503;53.208;10.392;2022-10-31T08:08:07;32.93;;;11.77;;
10900;SDS011;5503;53.208;10.392;2022-10-31T08:10:35;33.28;;;12.10;;
10900;SDS011;5503;53.208;10.392;2022-10-31T08:13:03;35.28;;;12.32;;
10900;SDS011;5503;53.208;10.392;2022-10-31T08:15:30;31.33;;;11.93;;
10900;SDS011;5503;53.208;10.392;2022-10-31T08:17:59;30.40;;;12.20;;
10900;SDS011;5503;53.208;10.392;2022-10-31T08:20:27;32.60;;;12.10;;
10900;SDS011;5503;53.208;10.392;2022-10-31T08:22:54;30.42;;;11.90;;
10900;SDS011;5503;53.208;10.392;2022-10-31T08:25:23;29.13;;;11.20;;
10900;SDS011;5503;53.208;10.392;2022-10-31T08:27:51;30.17;;;12.18;;
10900;SDS011;5503;53.208;10.392;2022-10-31T08:30:20;32.17;;;12.05;;
10900;SDS011;5503;53.208;10.392;2022-10-31T08:32:47;27.43;;;10.93;;
10900;SDS011;5503;53.208;10.392;2022-10-31T08:35:23;27.88;;;11.13;;
10900;SDS011;5503;53.208;10.392;2022-10-31T08:37:51;25.02;;;10.38;;
10900;SDS011;5503;53.208;10.392;2022-10-31T08:40:19;28.38;;;10.57;;
10900;SDS011;5503;53.208;10.392;2022-10-31T08:42:47;27.65;;;10.25;;
10900;SDS011;5503;53.208;10.392;2022-10-31T08:45:21;27.87;;;10.47;;
10900;SDS011;5503;53.208;10.392;2022-10-31T08:47:47;24.70;;;10.07;;
10900;SDS011;5503;53.208;10.392;2022-10-31T08:50:14;28.75;;;10.70;;
10900;SDS011;5503;53.208;10.392;2022-10-31T08:52:41;27.80;;;9.32;;
10900;SDS011;5503;53.208;10.392;2022-10-31T08:55:08;27.02;;;10.65;;
10900;SDS011;5503;53.208;10.392;2022-10-31T08:57:35;24.37;;;10.27;;
10900;SDS011;5503;53.208;10.392;2022-10-31T09:00:04;24.20;;;9.00;;
10900;SDS011;5503;53.208;10.392;2022-10-31T09:02:31;24.63;;;9.95;;
10900;SDS011;5503;53.208;10.392;2022-10-31T09:04:58;24.52;;;9.55;;
10900;SDS011;5503;53.208;10.392;2022-10-31T09:07:25;24.25;;;9.38;;
10900;SDS011;5503;53.208;10.392;2022-10-31T09:09:52;25.60;;;9.53;;
10900;SDS011;5503;53.208;10.392;2022-10-31T09:12:20;23.05;;;9.10;;
10900;SDS011;5503;53.208;10.392;2022-10-31T09:14:48;25.83;;;8.50;;
10900;SDS011;5503;53.208;10.392;2022-10-31T09:17:17;23.25;;;9.10;;
10900;SDS011;5503;53.208;10.392;2022-10-31T09:19:43;22.92;;;8.15;;
10900;SDS011;5503;53.208;10.392;2022-10-31T09:22:10;20.53;;;8.70;;
10900;SDS011;5503;53.208;10.392;2022-10-31T09:24:37;19.80;;;8.43;;
10900;SDS011;5503;53.208;10.392;2022-10-31T09:27:04;19.20;;;7.80;;
10900;SDS011;5503;53.208;10.392;2022-10-31T09:29:31;17.48;;;7.57;;
10900;SDS011;5503;53.208;10.392;2022-10-31T09:31:58;19.92;;;7.70;;
10900;SDS011;5503;53.208;10.392;2022-10-31T09:34:26;20.57;;;7.57;;
10900;SDS011;5503;53.208;10.392;2022-10-31T09:36:53;15.65;;;7.32;;
10900;SDS011;5503;53.208;10.392;2022-10-31T09:39:20;19.25;;;7.55;;
10900;SDS011;5503;53.208;10.392;2022-10-31T09:41:55;23.23;;;7.97;;
10900;SDS011;5503;53.208;10.392;2022-10-31T09:44:32;18.50;;;7.22;;
10900;SDS011;5503;53.208;10.392;2022-10-31T09:47:05;15.77;;;6.70;;
10900;SDS011;5503;53.208;10.392;2022-10-31T09:49:46;17.90;;;7.00;;
10900;SDS011;5503;53.208;10.392;2022-10-31T09:52:24;14.57;;;6.68;;
10900;SDS011;5503;53.208;10.392;2022-10-31T09:54:57;18.67;;;7.28;;
10900;SDS011;5503;53.208;10.392;2022-10-31T09:57:27;18.27;;;7.22;;
10900;SDS011;5503;53.208;10.392;2022-10-31T09:59:57;17.40;;;7.07;;
10900;SDS011;5503;53.208;10.392;2022-10-31T10:02:26;14.63;;;6.53;;
10900;SDS011;5503;53.208;10.392;2022-10-31T10:04:59;17.75;;;6.78;;
10900;SDS011;5503;53.208;10.392;2022-10-31T10:07:32;16.58;;;7.05;;
10900;SDS011;5503;53.208;10.392;2022-10-31T10:10:12;14.70;;;6.50;;
10900;SDS011;5503;53.208;10.392;2022-10-31T10:12:45;15.70;;;6.63;;
10900;SDS011;5503;53.208;10.392;2022-10-31T10:15:29;17.25;;;6.78;;
10900;SDS011;5503;53.208;10.392;2022-10-31T10:18:07;16.25;;;6.72;;
10900;SDS011;5503;53.208;10.392;2022-10-31T10:20:49;17.33;;;6.90;;
10900;SDS011;5503;53.208;10.392;2022-10-31T10:23:33;14.02;;;5.63;;
10900;SDS011;5503;53.208;10.392;2022-10-31T10:26:10;17.27;;;6.80;;
10900;SDS011;5503;53.208;10.392;2022-10-31T10:28:43;18.65;;;6.57;;
10900;SDS011;5503;53.208;10.392;2022-10-31T10:31:14;14.48;;;6.13;;
10900;SDS011;5503;53.208;10.392;2022-10-31T10:33:44;14.55;;;6.57;;
10900;SDS011;5503;53.208;10.392;2022-10-31T10:36:20;17.70;;;6.35;;
10900;SDS011;5503;53.208;10.392;2022-10-31T10:38:53;15.40;;;6.63;;
10900;SDS011;5503;53.208;10.392;2022-10-31T10:41:25;16.25;;;6.55;;
10900;SDS011;5503;53.208;10.392;2022-10-31T10:43:57;16.95;;;7.03;;
10900;SDS011;5503;53.208;10.392;2022-10-31T10:46:23;16.15;;;6.20;;
10900;SDS011;5503;53.208;10.392;2022-10-31T10:49:16;12.73;;;5.90;;
10900;SDS011;5503;53.208;10.392;2022-10-31T10:51:47;14.32;;;5.55;;
10900;SDS011;5503;53.208;10.392;2022-10-31T10:54:33;15.60;;;6.20;;
10900;SDS011;5503;53.208;10.392;2022-10-31T10:57:11;13.93;;;5.95;;
10900;SDS011;5503;53.208;10.392;2022-10-31T10:59:48;13.95;;;6.55;;
10900;SDS011;5503;53.208;10.392;2022-10-31T11:02:18;14.67;;;5.53;;
10900;SDS011;5503;53.208;10.392;2022-10-31T11:04:47;13.30;;;5.82;;
10900;SDS011;5503;53.208;10.392;2022-10-31T11:07:18;11.88;;;5.25;;
10900;SDS011;5503;53.208;10.392;2022-10-31T11:09:45;10.73;;;5.03;;
10900;SDS011;5503;53.208;10.392;2022-10-31T11:12:16;13.27;;;5.47;;
10900;SDS011;5503;53.208;10.392;2022-10-31T11:14:47;13.17;;;6.43;;
10900;SDS011;5503;53.208;10.392;2022-10-31T11:17:20;12.40;;;4.70;;
10900;SDS011;5503;53.208;10.392;2022-10-31T11:20:00;11.32;;;5.15;;
10900;SDS011;5503;53.208;10.392;2022-10-31T11:22:30;11.52;;;5.32;;
10900;SDS011;5503;53.208;10.392;2022-10-31T11:24:57;11.27;;;4.70;;
10900;SDS011;5503;53.208;10.392;2022-10-31T11:27:25;11.47;;;4.47;;
10900;SDS011;5503;53.208;10.392;2022-10-31T11:29:52;8.57;;;4.30;;
10900;SDS011;5503;53.208;10.392;2022-10-31T11:32:29;10.13;;;3.88;;
10900;SDS011;5503;53.208;10.392;2022-10-31T11:34:57;12.20;;;4.63;;
10900;SDS011;5503;53.208;10.392;2022-10-31T11:37:28;10.20;;;4.57;;
10900;SDS011;5503;53.208;10.392;2022-10-31T11:40:00;11.57;;;4.77;;
10900;SDS011;5503;53.208;10.392;2022-10-31T11:42:40;11.18;;;4.25;;
10900;SDS011;5503;53.208;10.392;2022-10-31T11:45:13;10.82;;;4.05;;
10900;SDS011;5503;53.208;10.392;2022-10-31T11:47:42;11.43;;;4.03;;
10900;SDS011;5503;53.208;10.392;2022-10-31T11:50:19;12.82;;;4.47;;
10900;SDS011;5503;53.208;10.392;2022-10-31T11:52:50;11.37;;;4.57;;
10900;SDS011;5503;53.208;10.392;2022-10-31T11:55:29;9.95;;;4.07;;
10900;SDS011;5503;53.208;10.392;2022-10-31T11:57:58;10.10;;;4.10;;
10900;SDS011;5503;53.208;10.392;2022-10-31T12:00:26;13.35;;;3.90;;
10900;SDS011;5503;53.208;10.392;2022-10-31T12:03:04;11.80;;;4.32;;
10900;SDS011;5503;53.208;10.392;2022-10-31T12:05:37;10.60;;;4.10;;
10900;SDS011;5503;53.208;10.392;2022-10-31T12:08:07;11.88;;;3.70;;
10900;SDS011;5503;53.208;10.392;2022-10-31T12:10:38;11.27;;;4.38;;
10900;SDS011;5503;53.208;10.392;2022-10-31T12:13:17;8.57;;;3.60;;
10900;SDS011;5503;53.208;10.392;2022-10-31T12:16:00;10.43;;;3.65;;
10900;SDS011;5503;53.208;10.392;2022-10-31T12:21:29;14.57;;;4.28;;
10900;SDS011;5503;53.208;10.392;2022-10-31T12:24:07;12.25;;;3.95;;
10900;SDS011;5503;53.208;10.392;2022-10-31T12:26:42;11.93;;;4.10;;
10900;SDS011;5503;53.208;10.392;2022-10-31T12:29:32;8.80;;;3.25;;
10900;SDS011;5503;53.208;10.392;2022-10-31T12:32:14;8.33;;;3.47;;
10900;SDS011;5503;53.208;10.392;2022-10-31T12:37:55;10.07;;;4.00;;
10900;SDS011;5503;53.208;10.392;2022-10-31T12:40:42;8.63;;;3.55;;
10900;SDS011;5503;53.208;10.392;2022-10-31T12:43:25;11.02;;;4.00;;
10900;SDS011;5503;53.208;10.392;2022-10-31T12:45:56;11.70;;;3.77;;
10900;SDS011;5503;53.208;10.392;2022-10-31T12:48:30;7.70;;;3.70;;
10900;SDS011;5503;53.208;10.392;2022-10-31T12:51:26;9.68;;;3.78;;
10900;SDS011;5503;53.208;10.392;2022-10-31T12:54:09;10.95;;;3.75;;
10900;SDS011;5503;53.208;10.392;2022-10-31T12:56:51;9.25;;;3.80;;
10900;SDS011;5503;53.208;10.392;2022-10-31T12:59:26;8.60;;;3.40;;
10900;SDS011;5503;53.208;10.392;2022-10-31T13:01:59;9.75;;;3.60;;
10900;SDS011;5503;53.208;10.392;2022-10-31T13:04:42;10.80;;;4.10;;
10900;SDS011;5503;53.208;10.392;2022-10-31T13:07:12;9.00;;;3.60;;
10900;SDS011;5503;53.208;10.392;2022-10-31T13:09:42;12.23;;;3.92;;
10900;SDS011;5503;53.208;10.392;2022-10-31T13:12:17;8.27;;;3.70;;
10900;SDS011;5503;53.208;10.392;2022-10-31T13:14:47;7.80;;;3.85;;
10900;SDS011;5503;53.208;10.392;2022-10-31T13:17:20;8.85;;;3.67;;
10900;SDS011;5503;53.208;10.392;2022-10-31T13:19:48;9.77;;;4.07;;
10900;SDS011;5503;53.208;10.392;2022-10-31T13:22:18;10.73;;;4.05;;
10900;SDS011;5503;53.208;10.392;2022-10-31T13:24:52;8.83;;;3.27;;
10900;SDS011;5503;53.208;10.392;2022-10-31T13:27:22;9.73;;;3.75;;
10900;SDS011;5503;53.208;10.392;2022-10-31T13:29:55;12.27;;;5.18;;
10900;SDS011;5503;53.208;10.392;2022-10-31T13:32:27;7.75;;;3.70;;
10900;SDS011;5503;53.208;10.392;2022-10-31T13:35:07;10.23;;;4.10;;
10900;SDS011;5503;53.208;10.392;2022-10-31T13:37:41;9.07;;;3.90;;
10900;SDS011;5503;53.208;10.392;2022-10-31T13:40:12;9.88;;;4.18;;
10900;SDS011;5503;53.208;10.392;2022-10-31T13:42:49;9.05;;;3.67;;
10900;SDS011;5503;53.208;10.392;2022-10-31T13:45:22;9.63;;;3.97;;
10900;SDS011;5503;53.208;10.392;2022-10-31T13:47:57;12.85;;;3.90;;
10900;SDS011;5503;53.208;10.392;2022-10-31T13:50:26;11.17;;;4.17;;
10900;SDS011;5503;53.208;10.392;2022-10-31T13:53:03;10.40;;;3.97;;
10900;SDS011;5503;53.208;10.392;2022-10-31T13:55:38;11.32;;;4.10;;
10900;SDS011;5503;53.208;10.392;2022-10-31T13:58:20;12.48;;;4.53;;
10900;SDS011;5503;53.208;10.392;2022-10-31T14:00:59;13.45;;;4.40;;
10900;SDS011;5503;53.208;10.392;2022-10-31T14:03:32;8.30;;;3.93;;
10900;SDS011;5503;53.208;10.392;2022-10-31T14:06:01;10.50;;;4.32;;
10900;SDS011;5503;53.208;10.392;2022-10-31T14:08:29;10.32;;;4.68;;
10900;SDS011;5503;53.208;10.392;2022-10-31T14:11:00;11.45;;;4.07;;
10900;SDS011;5503;53.208;10.392;2022-10-31T14:13:30;11.75;;;4.55;;
10900;SDS011;5503;53.208;10.392;2022-10-31T14:15:59;9.60;;;3.83;;
10900;SDS011;5503;53.208;10.392;2022-10-31T14:18:29;13.48;;;4.28;;
10900;SDS011;5503;53.208;10.392;2022-10-31T14:20:58;12.27;;;4.00;;
10900;SDS011;5503;53.208;10.392;2022-10-31T14:23:31;9.93;;;4.35;;
10900;SDS011;5503;53.208;10.392;2022-10-31T14:26:06;11.43;;;4.07;;
10900;SDS011;5503;53.208;10.392;2022-10-31T14:28:44;9.57;;;3.80;;
10900;SDS011;5503;53.208;10.392;2022-10-31T14:31:26;8.82;;;4.10;;
10900;SDS011;5503;53.208;10.392;2022-10-31T14:33:58;10.77;;;4.05;;
10900;SDS011;5503;53.208;10.392;2022-10-31T14:36:28;10.73;;;3.72;;
10900;SDS011;5503;53.208;10.392;2022-10-31T14:39:03;8.90;;;3.92;;
10900;SDS011;5503;53.208;10.392;2022-10-31T14:41:40;9.33;;;3.60;;
10900;SDS011;5503;53.208;10.392;2022-10-31T14:44:17;12.15;;;6.80;;
10900;SDS011;5503;53.208;10.392;2022-10-31T14:46:55;12.50;;;4.50;;
10900;SDS011;5503;53.208;10.392;2022-10-31T14:49:31;9.20;;;4.85;;
10900;SDS011;5503;53.208;10.392;2022-10-31T14:52:11;11.43;;;4.47;;
10900;SDS011;5503;53.208;10.392;2022-10-31T14:54:40;10.10;;;4.60;;
10900;SDS011;5503;53.208;10.392;2022-10-31T14:57:13;13.15;;;4.75;;